createdAt,value
2023-04-21T00:00:54.166Z,98879.03
2023-04-21T00:03:22.784Z,98878.19
2023-04-21T00:05:51.078Z,98870.59
2023-04-21T00:08:19.140Z,98868.81
2023-04-21T00:10:47.091Z,98877.09
2023-04-21T00:13:14.432Z,98865.50
2023-04-21T00:15:41.937Z,98867.84
2023-04-21T00:18:10.167Z,98856.53
2023-04-21T00:20:37.440Z,98866.59
2023-04-21T00:23:04.356Z,98870.59
2023-04-21T00:25:31.190Z,98869.63
2023-04-21T00:27:58.180Z,98865.22
2023-04-21T00:30:25.244Z,98860.50
2023-04-21T00:32:52.083Z,98862.75
2023-04-21T00:35:19.038Z,98864.94
2023-04-21T00:37:46.330Z,98858.59
2023-04-21T00:40:13.886Z,98863.53
2023-04-21T00:42:40.875Z,98854.41
2023-04-21T00:45:08.508Z,98851.38
2023-04-21T00:47:35.456Z,98857.03
2023-04-21T00:50:03.440Z,98853.03
2023-04-21T00:52:30.596Z,98858.31
2023-04-21T00:54:57.623Z,98846.31
2023-04-21T00:57:24.359Z,98854.16
2023-04-21T00:59:52.216Z,98850.28
2023-04-21T01:02:19.133Z,98849.00
2023-04-21T01:04:46.408Z,98861.66
2023-04-21T01:07:13.167Z,98862.53
2023-04-21T01:09:40.372Z,98866.66
2023-04-21T01:12:11.722Z,98871.53
2023-04-21T01:14:41.267Z,98868.59
2023-04-21T01:17:08.962Z,98868.75
2023-04-21T01:19:41.501Z,98869.16
2023-04-21T01:22:13.000Z,98870.25
2023-04-21T01:24:42.728Z,98867.06
2023-04-21T01:27:11.843Z,98864.03
2023-04-21T01:29:40.838Z,98868.16
2023-04-21T01:32:10.563Z,98865.22
2023-04-21T01:34:38.228Z,98869.19
2023-04-21T01:37:08.126Z,98862.59
2023-04-21T01:39:35.272Z,98865.06
2023-04-21T01:42:02.058Z,98873.66
2023-04-21T01:44:28.828Z,98874.53
2023-04-21T01:46:56.004Z,98874.69
2023-04-21T01:49:22.767Z,98872.06
2023-04-21T01:51:49.799Z,98875.63
2023-04-21T01:54:16.582Z,98873.28
2023-04-21T01:56:43.406Z,98871.66
2023-04-21T01:59:10.733Z,98869.72
2023-04-21T02:01:37.570Z,98870.28
2023-04-21T02:04:06.723Z,98872.63
2023-04-21T02:06:33.885Z,98869.72
2023-04-21T02:09:00.627Z,98862.84
2023-04-21T02:11:27.334Z,98866.97
2023-04-21T02:13:55.160Z,98855.63
2023-04-21T02:16:26.450Z,98856.31
2023-04-21T02:18:57.247Z,98855.88
2023-04-21T02:21:25.193Z,98841.28
2023-04-21T02:23:52.474Z,98846.78
2023-04-21T02:26:19.980Z,98845.69
2023-04-21T02:28:47.488Z,98830.53
2023-04-21T02:31:14.658Z,98852.47
2023-04-21T02:33:41.813Z,98833.28
2023-04-21T02:36:09.052Z,98833.25
2023-04-21T02:38:35.835Z,98838.47
2023-04-21T02:41:02.779Z,98841.22
2023-04-21T02:43:29.980Z,98836.78
2023-04-21T02:45:57.033Z,98842.03
2023-04-21T02:48:23.963Z,98843.94
2023-04-21T02:50:51.167Z,98833.16
2023-04-21T02:53:18.177Z,98842.03
2023-04-21T02:55:44.886Z,98833.94
2023-04-21T02:58:11.690Z,98842.03
2023-04-21T03:00:38.461Z,98843.69
2023-04-21T03:03:05.615Z,98849.19
2023-04-21T03:05:32.482Z,98849.06
2023-04-21T03:07:59.273Z,98846.34
2023-04-21T03:10:26.100Z,98850.22
2023-04-21T03:12:53.838Z,98841.25
2023-04-21T03:15:21.296Z,98839.06
2023-04-21T03:17:48.367Z,98840.41
2023-04-21T03:20:16.417Z,98837.13
2023-04-21T03:22:43.091Z,98837.09
2023-04-21T03:25:09.906Z,98845.94
2023-04-21T03:27:36.586Z,98839.81
2023-04-21T03:30:03.482Z,98839.66
2023-04-21T03:32:30.345Z,98843.97
2023-04-21T03:34:57.227Z,98841.59
2023-04-21T03:37:24.137Z,98842.69
2023-04-21T03:39:50.903Z,98836.09
2023-04-21T03:42:17.713Z,98844.50
2023-04-21T03:44:50.442Z,98841.59
2023-04-21T03:47:18.191Z,98836.88
2023-04-21T03:49:44.994Z,98841.44
2023-04-21T03:52:12.556Z,98840.47
2023-04-21T03:54:39.631Z,98846.56
2023-04-21T03:57:06.364Z,98844.88
2023-04-21T03:59:33.378Z,98842.66
2023-04-21T04:02:00.247Z,98837.13
2023-04-21T04:04:27.546Z,98851.09
2023-04-21T04:06:54.387Z,98844.22
2023-04-21T04:09:21.312Z,98852.59
2023-04-21T04:11:48.165Z,98849.19
2023-04-21T04:14:15.131Z,98847.09
2023-04-21T04:16:41.972Z,98840.19
2023-04-21T04:19:09.449Z,98844.19
2023-04-21T04:21:36.299Z,98831.34
2023-04-21T04:24:03.537Z,98844.63
2023-04-21T04:26:30.347Z,98844.31
2023-04-21T04:28:57.363Z,98847.00
2023-04-21T04:31:25.864Z,98839.63
2023-04-21T04:33:54.884Z,98836.41
2023-04-21T04:36:23.292Z,98842.47
2023-04-21T04:38:50.136Z,98840.13
2023-04-21T04:41:17.142Z,98852.47
2023-04-21T04:43:44.289Z,98837.97
2023-04-21T04:46:13.346Z,98842.19
2023-04-21T04:48:40.786Z,98849.22
2023-04-21T04:51:07.826Z,98844.31
2023-04-21T04:53:35.611Z,98850.53
2023-04-21T04:56:02.512Z,98855.28
2023-04-21T04:58:29.237Z,98841.78
2023-04-21T05:00:56.235Z,98858.31
2023-04-21T05:03:23.093Z,98850.03
2023-04-21T05:05:49.898Z,98843.34
2023-04-21T05:08:18.067Z,98853.63
2023-04-21T05:10:45.820Z,98858.22
2023-04-21T05:13:12.823Z,98852.59
2023-04-21T05:15:39.778Z,98860.78
2023-04-21T05:18:07.945Z,98853.16
2023-04-21T05:20:34.718Z,98849.03
2023-04-21T05:23:01.417Z,98845.94
2023-04-21T05:25:28.736Z,98854.91
2023-04-21T05:27:55.988Z,98855.19
2023-04-21T05:30:23.105Z,98855.09
2023-04-21T05:32:50.657Z,98863.78
2023-04-21T05:35:17.549Z,98858.81
2023-04-21T05:37:44.244Z,98867.25
2023-04-21T05:40:11.296Z,98861.72
2023-04-21T05:42:38.576Z,98877.59
2023-04-21T05:45:06.279Z,98871.94
2023-04-21T05:47:33.123Z,98868.91
2023-04-21T05:50:00.256Z,98877.88
2023-04-21T05:52:27.068Z,98883.69
2023-04-21T05:54:53.839Z,98880.38
2023-04-21T05:57:21.188Z,98876.13
2023-04-21T05:59:48.172Z,98873.06
2023-04-21T06:02:15.288Z,98864.41
2023-04-21T06:04:42.312Z,98850.88
2023-04-21T06:07:10.743Z,98862.28
2023-04-21T06:09:38.887Z,98867.97
2023-04-21T06:12:06.317Z,98862.97
2023-04-21T06:14:33.464Z,98864.50
2023-04-21T06:17:00.302Z,98859.38
2023-04-21T06:19:27.233Z,98859.91
2023-04-21T06:21:54.276Z,98850.28
2023-04-21T06:24:25.868Z,98860.59
2023-04-21T06:26:53.642Z,98855.25
2023-04-21T06:29:21.443Z,98849.25
2023-04-21T06:31:48.388Z,98855.59
2023-04-21T06:34:15.794Z,98852.53
2023-04-21T06:36:43.025Z,98844.47
2023-04-21T06:39:09.903Z,98845.00
2023-04-21T06:41:36.799Z,98848.06
2023-04-21T06:44:03.595Z,98845.09
2023-04-21T06:46:30.489Z,98854.94
2023-04-21T06:48:57.235Z,98845.00
2023-04-21T06:51:24.823Z,98852.66
2023-04-21T06:53:51.939Z,98850.88
2023-04-21T06:56:18.718Z,98849.31
2023-04-21T06:58:47.207Z,98841.75
2023-04-21T07:01:14.036Z,98841.44
2023-04-21T07:03:41.622Z,98837.19
2023-04-21T07:06:08.778Z,98835.16
2023-04-21T07:08:35.815Z,98830.28
2023-04-21T07:11:02.862Z,98820.69
2023-04-21T07:13:30.021Z,98826.69
2023-04-21T07:15:56.956Z,98828.34
2023-04-21T07:18:23.796Z,98820.13
2023-04-21T07:20:50.984Z,98819.75
2023-04-21T07:23:18.071Z,98829.44
2023-04-21T07:25:44.904Z,98832.59
2023-04-21T07:28:11.764Z,98834.44
2023-04-21T07:30:38.663Z,98831.19
2023-04-21T07:33:05.763Z,98830.34
2023-04-21T07:35:32.626Z,98834.22
2023-04-21T07:37:59.481Z,98821.63
2023-04-21T07:40:26.671Z,98833.59
2023-04-21T07:42:53.410Z,98832.75
2023-04-21T07:45:20.255Z,98835.81
2023-04-21T07:47:47.281Z,98828.38
2023-04-21T07:50:14.269Z,98828.88
2023-04-21T07:52:41.262Z,98828.38
2023-04-21T07:55:08.269Z,98827.94
2023-04-21T07:57:39.116Z,98824.97
2023-04-21T08:00:07.215Z,98830.44
2023-04-21T08:02:34.151Z,98831.94
2023-04-21T08:05:01.011Z,98829.78
2023-04-21T08:07:28.005Z,98817.91
2023-04-21T08:09:55.053Z,98824.50
2023-04-21T08:12:21.734Z,98826.63
2023-04-21T08:14:48.837Z,98814.22
2023-04-21T08:17:16.362Z,98818.31
2023-04-21T08:19:43.232Z,98815.38
2023-04-21T08:22:10.111Z,98823.03
2023-04-21T08:24:37.020Z,98821.78
2023-04-21T08:27:03.975Z,98829.75
2023-04-21T08:29:30.995Z,98825.34
2023-04-21T08:31:57.804Z,98831.13
2023-04-21T08:34:27.209Z,98821.22
2023-04-21T08:36:55.471Z,98842.16
2023-04-21T08:39:22.424Z,98826.63
2023-04-21T08:41:50.021Z,98824.97
2023-04-21T08:44:16.852Z,98824.34
2023-04-21T08:46:45.802Z,98818.41
2023-04-21T08:49:13.505Z,98818.72
2023-04-21T08:51:40.530Z,98824.50
2023-04-21T08:54:07.362Z,98813.13
2023-04-21T08:56:34.273Z,98817.56
2023-04-21T08:59:01.061Z,98815.25
2023-04-21T09:01:28.285Z,98809.47
2023-04-21T09:03:55.250Z,98810.91
2023-04-21T09:06:22.566Z,98809.28
2023-04-21T09:08:56.455Z,98812.03
2023-04-21T09:11:23.700Z,98820.75
2023-04-21T09:13:50.771Z,98816.69
2023-04-21T09:16:22.237Z,98817.41
2023-04-21T09:18:50.228Z,98822.28
2023-04-21T09:21:19.019Z,98817.63
2023-04-21T09:23:51.483Z,98809.91
2023-04-21T09:26:21.969Z,98805.16
2023-04-21T09:28:50.089Z,98808.19
2023-04-21T09:31:22.071Z,98804.25
2023-04-21T09:34:00.135Z,98791.75
2023-04-21T09:36:29.731Z,98797.41
2023-04-21T09:41:33.764Z,98799.50
2023-04-21T09:44:02.150Z,98784.50
2023-04-21T09:46:29.909Z,98796.38
2023-04-21T09:48:57.421Z,98792.44
2023-04-21T09:51:42.713Z,98786.28
2023-04-21T09:56:58.042Z,98783.31
2023-04-21T09:59:38.282Z,98788.78
2023-04-21T10:02:07.911Z,98784.59
2023-04-21T10:04:37.005Z,98783.03
2023-04-21T10:07:04.120Z,98770.53
2023-04-21T10:09:39.773Z,98771.97
2023-04-21T10:12:09.002Z,98768.00
2023-04-21T10:14:36.847Z,98760.91
2023-04-21T10:17:06.213Z,98766.31
2023-04-21T10:19:39.960Z,98764.00
2023-04-21T10:22:09.248Z,98769.56
2023-04-21T10:24:40.224Z,98760.81
2023-04-21T10:27:12.005Z,98757.63
2023-04-21T10:29:54.766Z,98755.91
2023-04-21T10:32:43.265Z,98760.34
2023-04-21T10:35:22.089Z,98761.06
2023-04-21T10:37:50.716Z,98758.66
2023-04-21T10:40:44.130Z,98768.06
2023-04-21T10:43:44.379Z,98758.72
2023-04-21T10:46:35.562Z,98749.97
2023-04-21T10:49:07.569Z,98750.72
2023-04-21T10:51:56.321Z,98742.38
2023-04-21T10:54:23.253Z,98746.91
2023-04-21T10:56:52.705Z,98737.28
2023-04-21T10:59:19.843Z,98744.63
2023-04-21T11:01:46.832Z,98734.84
2023-04-21T11:04:18.192Z,98729.09
2023-04-21T11:07:08.519Z,98732.09
2023-04-21T11:09:36.263Z,98725.09
2023-04-21T11:12:11.739Z,98714.66
2023-04-21T11:14:42.126Z,98720.47
2023-04-21T11:17:13.856Z,98711.66
2023-04-21T11:19:40.865Z,98723.13
2023-04-21T11:22:08.447Z,98714.34
2023-04-21T11:24:35.322Z,98708.19
2023-04-21T11:27:02.719Z,98713.53
2023-04-21T11:29:30.129Z,98700.25
2023-04-21T11:31:57.287Z,98704.00
2023-04-21T11:34:25.861Z,98701.78
2023-04-21T11:36:53.297Z,98695.22
2023-04-21T11:39:22.316Z,98692.38
2023-04-21T11:41:51.001Z,98687.47
2023-04-21T11:44:35.862Z,98687.53
2023-04-21T11:47:20.390Z,98680.91
2023-04-21T11:49:48.223Z,98672.34
2023-04-21T11:52:25.996Z,98671.13
2023-04-21T11:55:13.243Z,98674.63
2023-04-21T11:57:41.634Z,98670.13
2023-04-21T12:00:13.673Z,98673.59
2023-04-21T12:02:40.807Z,98665.22
2023-04-21T12:05:12.923Z,98666.78
2023-04-21T12:07:43.285Z,98670.25
2023-04-21T12:10:12.347Z,98665.19
2023-04-21T12:12:40.081Z,98666.84
2023-04-21T12:15:08.300Z,98664.59
2023-04-21T12:17:40.642Z,98651.78
2023-04-21T12:20:08.998Z,98664.03
2023-04-21T12:22:37.637Z,98665.50
2023-04-21T12:25:06.434Z,98648.56
2023-04-21T12:27:33.336Z,98660.69
2023-04-21T12:30:00.183Z,98655.19
2023-04-21T12:32:27.185Z,98647.38
2023-04-21T12:34:53.902Z,98655.97
2023-04-21T12:37:21.024Z,98656.59
2023-04-21T12:39:47.913Z,98634.66
2023-04-21T12:42:14.808Z,98640.59
2023-04-21T12:44:41.867Z,98639.81
2023-04-21T12:47:08.777Z,98638.16
2023-04-21T12:49:35.816Z,98627.28
2023-04-21T12:52:05.810Z,98629.53
2023-04-21T12:54:32.608Z,98615.41
2023-04-21T12:56:59.623Z,98637.16
2023-04-21T12:59:26.574Z,98625.22
2023-04-21T13:01:54.046Z,98623.41
2023-04-21T13:04:22.305Z,98624.00
2023-04-21T13:06:49.436Z,98615.81
2023-04-21T13:09:17.306Z,98622.97
2023-04-21T13:11:44.105Z,98625.41
2023-04-21T13:14:11.208Z,98619.00
2023-04-21T13:16:38.253Z,98616.75
2023-04-21T13:19:05.651Z,98618.63
2023-04-21T13:21:33.037Z,98620.25
2023-04-21T13:23:59.951Z,98611.63
2023-04-21T13:26:27.820Z,98611.94
2023-04-21T13:28:55.085Z,98606.56
2023-04-21T13:31:22.051Z,98600.84
2023-04-21T13:33:49.757Z,98601.53
2023-04-21T13:36:17.459Z,98584.66
2023-04-21T13:38:44.521Z,98581.03
2023-04-21T13:41:11.827Z,98577.19
2023-04-21T13:43:38.852Z,98583.84
2023-04-21T13:46:06.179Z,98571.75
2023-04-21T13:48:32.890Z,98575.88
2023-04-21T13:50:59.771Z,98564.22
2023-04-21T13:53:27.171Z,98566.97
2023-04-21T13:55:57.818Z,98567.63
2023-04-21T13:58:24.612Z,98564.94
2023-04-21T14:00:51.678Z,98556.81
2023-04-21T14:03:19.062Z,98544.03
2023-04-21T14:05:46.245Z,98550.38
2023-04-21T14:08:13.034Z,98541.97
2023-04-21T14:10:39.910Z,98541.19
2023-04-21T14:13:07.278Z,98543.84
2023-04-21T14:15:34.820Z,98540.91
2023-04-21T14:18:01.666Z,98544.91
2023-04-21T14:20:28.735Z,98538.63
2023-04-21T14:22:55.593Z,98536.00
2023-04-21T14:25:22.825Z,98526.34
2023-04-21T14:27:49.667Z,98522.91
2023-04-21T14:30:16.839Z,98519.78
2023-04-21T14:32:45.966Z,98518.25
2023-04-21T14:35:13.214Z,98512.44
2023-04-21T14:37:41.631Z,98509.25
2023-04-21T14:40:10.234Z,98512.00
2023-04-21T14:42:37.023Z,98512.16
2023-04-21T14:45:04.386Z,98491.22
2023-04-21T14:47:31.431Z,98496.28
2023-04-21T14:49:58.607Z,98488.84
2023-04-21T14:52:27.208Z,98487.47
2023-04-21T14:54:54.131Z,98491.63
2023-04-21T14:57:22.303Z,98490.56
2023-04-21T14:59:53.555Z,98484.25
2023-04-21T15:02:21.805Z,98484.56
2023-04-21T15:04:49.541Z,98487.34
2023-04-21T15:07:19.900Z,98483.66
2023-04-21T15:09:51.645Z,98483.16
2023-04-21T15:12:18.734Z,98467.81
2023-04-21T15:14:45.530Z,98479.03
2023-04-21T15:17:12.721Z,98473.41
2023-04-21T15:19:39.477Z,98467.34
2023-04-21T15:22:06.366Z,98464.97
2023-04-21T15:24:33.475Z,98463.00
2023-04-21T15:27:00.308Z,98465.88
2023-04-21T15:29:30.466Z,98452.38
2023-04-21T15:31:57.780Z,98460.34
2023-04-21T15:34:25.330Z,98459.59
2023-04-21T15:36:52.398Z,98464.94
2023-04-21T15:39:19.300Z,98457.22
2023-04-21T15:41:46.514Z,98441.53
2023-04-21T15:44:13.470Z,98444.06
2023-04-21T15:46:40.652Z,98445.25
2023-04-21T15:49:07.675Z,98443.88
2023-04-21T15:51:36.629Z,98440.75
2023-04-21T15:54:04.908Z,98438.84
2023-04-21T15:56:32.024Z,98435.91
2023-04-21T15:58:59.142Z,98438.66
2023-04-21T16:01:26.124Z,98440.59
2023-04-21T16:03:53.733Z,98437.03
2023-04-21T16:06:21.872Z,98427.72
2023-04-21T16:08:48.724Z,98431.06
2023-04-21T16:11:16.158Z,98438.34
2023-04-21T16:13:43.122Z,98422.41
2023-04-21T16:16:10.578Z,98432.06
2023-04-21T16:18:37.650Z,98423.41
2023-04-21T16:21:04.801Z,98418.53
2023-04-21T16:23:32.414Z,98417.63
2023-04-21T16:26:00.349Z,98416.88
2023-04-21T16:28:30.246Z,98419.25
2023-04-21T16:30:57.167Z,98422.25
2023-04-21T16:33:24.120Z,98417.53
2023-04-21T16:35:52.523Z,98416.53
2023-04-21T16:38:20.098Z,98415.75
2023-04-21T16:40:47.272Z,98414.19
2023-04-21T16:43:14.212Z,98402.31
2023-04-21T16:45:41.226Z,98410.34
2023-04-21T16:48:08.648Z,98404.16
2023-04-21T16:50:36.112Z,98396.25
2023-04-21T16:53:03.101Z,98403.69
2023-04-21T16:55:31.706Z,98391.56
2023-04-21T16:57:59.613Z,98391.97
2023-04-21T17:00:27.507Z,98399.56
2023-04-21T17:02:55.279Z,98391.38
2023-04-21T17:05:23.532Z,98408.97
2023-04-21T17:07:51.345Z,98392.00
2023-04-21T17:10:18.803Z,98391.56
2023-04-21T17:12:46.545Z,98394.84
2023-04-21T17:15:13.585Z,98388.53
2023-04-21T17:17:43.343Z,98402.84
2023-04-21T17:20:12.022Z,98384.03
2023-04-21T17:22:40.152Z,98388.53
2023-04-21T17:25:08.415Z,98388.16
2023-04-21T17:27:36.750Z,98394.31
2023-04-21T17:30:08.085Z,98382.88
2023-04-21T17:32:35.968Z,98385.75
2023-04-21T17:35:05.124Z,98384.75
2023-04-21T17:37:32.056Z,98390.28
2023-04-21T17:40:02.444Z,98390.91
2023-04-21T17:42:30.082Z,98386.22
2023-04-21T17:44:56.860Z,98392.97
2023-04-21T17:47:23.598Z,98391.34
2023-04-21T17:49:50.893Z,98391.53
2023-04-21T17:52:18.533Z,98389.50
2023-04-21T17:54:46.566Z,98403.78
2023-04-21T17:57:13.498Z,98395.59
2023-04-21T17:59:40.687Z,98396.41
2023-04-21T18:02:07.879Z,98391.09
2023-04-21T18:04:35.246Z,98395.56
2023-04-21T18:07:03.118Z,98398.84
2023-04-21T18:09:32.838Z,98403.97
2023-04-21T18:12:00.285Z,98405.19
2023-04-21T18:14:27.548Z,98402.28
2023-04-21T18:16:54.812Z,98407.78
2023-04-21T18:19:21.689Z,98411.44
2023-04-21T18:21:48.384Z,98416.53
2023-04-21T18:24:15.301Z,98416.75
2023-04-21T18:26:42.348Z,98412.25
2023-04-21T18:29:09.231Z,98422.50
2023-04-21T18:31:36.468Z,98420.41
2023-04-21T18:34:03.362Z,98434.06
2023-04-21T18:36:32.916Z,98437.72
2023-04-21T18:39:00.630Z,98439.34
2023-04-21T18:41:27.842Z,98435.78
2023-04-21T18:43:55.008Z,98442.22
2023-04-21T18:46:22.435Z,98442.75
2023-04-21T18:48:49.262Z,98443.94
2023-04-21T18:51:16.087Z,98446.16
2023-04-21T18:53:43.564Z,98451.66
2023-04-21T18:56:10.359Z,98451.41
2023-04-21T18:58:37.467Z,98459.38
2023-04-21T19:01:04.228Z,98454.81
2023-04-21T19:03:31.463Z,98444.16
2023-04-21T19:05:58.996Z,98444.50
2023-04-21T19:08:40.706Z,98451.25
2023-04-21T19:11:08.109Z,98452.41
2023-04-21T19:13:34.823Z,98455.34
2023-04-21T19:16:01.943Z,98456.19
2023-04-21T19:18:29.093Z,98447.13
2023-04-21T19:20:56.285Z,98445.00
2023-04-21T19:23:23.588Z,98448.22
2023-04-21T19:25:54.840Z,98446.28
2023-04-21T19:28:21.937Z,98440.91
2023-04-21T19:30:49.181Z,98444.91
2023-04-21T19:33:16.664Z,98442.09
2023-04-21T19:35:43.608Z,98437.91
2023-04-21T19:38:10.646Z,98445.28
2023-04-21T19:40:37.513Z,98449.72
2023-04-21T19:43:05.212Z,98449.03
2023-04-21T19:45:32.021Z,98445.78
2023-04-21T19:47:59.019Z,98438.50
2023-04-21T19:50:25.863Z,98443.66
2023-04-21T19:52:52.711Z,98441.63
2023-04-21T19:55:19.731Z,98444.03
2023-04-21T19:57:46.568Z,98444.66
2023-04-21T20:00:14.472Z,98448.19
2023-04-21T20:02:41.533Z,98450.44
2023-04-21T20:05:09.689Z,98448.56
2023-04-21T20:07:37.500Z,98447.97
2023-04-21T20:10:07.989Z,98452.13
2023-04-21T20:12:34.812Z,98458.72
2023-04-21T20:15:02.132Z,98455.88
2023-04-21T20:17:29.601Z,98453.63
2023-04-21T20:19:56.639Z,98463.47
2023-04-21T20:22:23.829Z,98469.31
2023-04-21T20:24:52.267Z,98465.47
2023-04-21T20:27:19.180Z,98468.25
2023-04-21T20:29:46.976Z,98465.22
2023-04-21T20:32:14.202Z,98460.19
2023-04-21T20:34:41.252Z,98461.13
2023-04-21T20:37:08.320Z,98466.84
2023-04-21T20:39:35.035Z,98464.38
2023-04-21T20:42:12.710Z,98468.66
2023-04-21T20:44:41.564Z,98466.56
2023-04-21T20:47:08.728Z,98470.94
2023-04-21T20:49:35.987Z,98470.94
2023-04-21T20:52:03.060Z,98477.78
2023-04-21T20:54:29.840Z,98484.25
2023-04-21T20:56:56.572Z,98480.19
2023-04-21T20:59:23.351Z,98487.03
2023-04-21T21:01:50.141Z,98498.97
2023-04-21T21:04:17.345Z,98496.28
2023-04-21T21:06:44.426Z,98498.41
2023-04-21T21:09:11.955Z,98501.84
2023-04-21T21:11:38.807Z,98513.22
2023-04-21T21:14:05.850Z,98526.59
2023-04-21T21:16:32.862Z,98534.81
2023-04-21T21:18:59.798Z,98538.31
2023-04-21T21:21:26.787Z,98529.44
2023-04-21T21:23:53.499Z,98533.66
2023-04-21T21:26:20.824Z,98544.69
2023-04-21T21:28:47.761Z,98533.13
2023-04-21T21:31:14.863Z,98540.09
2023-04-21T21:33:41.779Z,98527.78
2023-04-21T21:36:08.647Z,98518.53
2023-04-21T21:38:35.457Z,98510.59
2023-04-21T21:41:02.217Z,98506.78
2023-04-21T21:43:29.071Z,98512.41
2023-04-21T21:45:56.019Z,98518.50
2023-04-21T21:48:22.860Z,98513.38
2023-04-21T21:50:49.677Z,98512.91
2023-04-21T21:53:16.438Z,98516.38
2023-04-21T21:55:43.253Z,98514.44
2023-04-21T21:58:10.262Z,98507.41
2023-04-21T22:00:39.335Z,98508.78
2023-04-21T22:03:06.661Z,98511.22
2023-04-21T22:05:34.418Z,98505.41
2023-04-21T22:08:01.197Z,98503.53
2023-04-21T22:10:28.211Z,98493.53
2023-04-21T22:12:54.852Z,98487.25
2023-04-21T22:15:21.745Z,98481.88
2023-04-21T22:17:48.584Z,98480.75
2023-04-21T22:20:15.492Z,98486.50
2023-04-21T22:22:42.263Z,98478.44
2023-04-21T22:25:11.118Z,98481.72
2023-04-21T22:27:37.863Z,98483.56
2023-04-21T22:30:05.647Z,98479.81
2023-04-21T22:32:32.662Z,98483.09
2023-04-21T22:35:00.021Z,98477.31
2023-04-21T22:37:27.657Z,98490.38
2023-04-21T22:39:57.986Z,98481.31
2023-04-21T22:42:24.727Z,98484.47
2023-04-21T22:44:51.419Z,98491.53
2023-04-21T22:47:18.146Z,98486.94
2023-04-21T22:49:44.976Z,98490.25
2023-04-21T22:52:11.886Z,98486.41
2023-04-21T22:54:38.713Z,98481.00
2023-04-21T22:57:06.127Z,98484.78
2023-04-21T22:59:33.220Z,98486.91
2023-04-21T23:02:00.328Z,98483.16
2023-04-21T23:04:27.117Z,98485.47
2023-04-21T23:06:54.084Z,98481.69
2023-04-21T23:09:20.980Z,98486.47
2023-04-21T23:11:47.680Z,98474.28
2023-04-21T23:14:14.435Z,98480.03
2023-04-21T23:16:41.304Z,98486.81
2023-04-21T23:19:08.075Z,98484.00
2023-04-21T23:21:35.082Z,98475.28
2023-04-21T23:24:01.948Z,98478.25
2023-04-21T23:26:28.640Z,98478.25
2023-04-21T23:28:55.333Z,98477.91
2023-04-21T23:31:22.279Z,98478.72
2023-04-21T23:33:49.062Z,98483.16
2023-04-21T23:36:15.907Z,98475.28
2023-04-21T23:38:42.586Z,98474.91
2023-04-21T23:41:09.334Z,98468.78
2023-04-21T23:43:37.560Z,98467.78
2023-04-21T23:46:04.540Z,98468.31
2023-04-21T23:48:31.318Z,98475.56
2023-04-21T23:50:58.068Z,98475.06
2023-04-21T23:53:25.197Z,98468.09
2023-04-21T23:55:52.127Z,98470.91
2023-04-21T23:58:18.790Z,98461.97
